createdAt,value
2024-05-09T00:02:49.506Z,24.60
2024-05-09T00:07:55.111Z,24.50
2024-05-09T00:13:03.044Z,24.40
2024-05-09T00:18:09.362Z,24.40
2024-05-09T00:23:16.000Z,24.40
2024-05-09T00:28:25.858Z,24.30
2024-05-09T00:33:31.239Z,24.20
2024-05-09T00:38:36.623Z,24.30
2024-05-09T00:43:44.588Z,24.20
2024-05-09T00:48:50.054Z,24.30
2024-05-09T00:53:55.691Z,24.30
2024-05-09T00:59:03.690Z,24.20
2024-05-09T01:04:09.470Z,24.30
2024-05-09T01:09:15.008Z,24.20
2024-05-09T01:14:23.129Z,24.30
2024-05-09T01:19:31.767Z,24.20
2024-05-09T01:24:40.053Z,24.30
2024-05-09T01:29:45.210Z,24.20
2024-05-09T01:34:50.590Z,24.20
2024-05-09T01:39:58.454Z,24.10
2024-05-09T01:45:03.676Z,24.00
2024-05-09T01:50:11.043Z,24.00
2024-05-09T01:55:19.690Z,23.90
2024-05-09T02:00:38.657Z,23.80
2024-05-09T02:05:47.992Z,23.70
2024-05-09T02:10:56.413Z,23.60
2024-05-09T02:16:01.709Z,23.50
2024-05-09T02:21:07.326Z,23.40
2024-05-09T02:26:15.375Z,23.20
2024-05-09T02:31:20.731Z,23.10
2024-05-09T02:36:25.927Z,23.00
2024-05-09T02:41:33.791Z,22.90
2024-05-09T02:46:39.202Z,22.80
2024-05-09T02:51:44.559Z,22.80
2024-05-09T02:56:52.391Z,22.80
2024-05-09T03:01:57.751Z,22.80
2024-05-09T03:07:03.000Z,22.80
2024-05-09T03:12:11.269Z,22.80
2024-05-09T03:17:16.635Z,22.90
2024-05-09T03:22:21.854Z,23.00
2024-05-09T03:27:29.662Z,23.00
2024-05-09T03:32:35.082Z,23.10
2024-05-09T03:37:40.456Z,23.20
2024-05-09T03:42:50.497Z,23.30
2024-05-09T03:47:55.962Z,23.50
2024-05-09T03:53:01.437Z,23.60
2024-05-09T03:58:09.685Z,23.70
2024-05-09T04:03:15.413Z,23.80
2024-05-09T04:08:21.248Z,23.90
2024-05-09T04:13:29.170Z,23.90
2024-05-09T04:18:34.444Z,24.00
2024-05-09T04:23:39.861Z,24.00
2024-05-09T04:28:47.685Z,24.00
2024-05-09T04:33:53.033Z,24.00
2024-05-09T04:38:58.333Z,24.00
2024-05-09T04:44:06.299Z,23.90
2024-05-09T04:49:11.668Z,23.90
2024-05-09T04:54:26.427Z,23.90
2024-05-09T04:59:41.829Z,23.90
2024-05-09T05:04:47.180Z,23.90
2024-05-09T05:09:53.269Z,23.90
2024-05-09T05:15:01.103Z,23.90
2024-05-09T05:20:08.542Z,23.80
2024-05-09T05:25:13.976Z,23.80
2024-05-09T05:30:28.707Z,23.80
2024-05-09T05:35:39.096Z,23.80
2024-05-09T05:45:52.408Z,23.80
2024-05-09T05:50:58.956Z,23.90
2024-05-09T05:56:05.178Z,23.90
2024-05-09T06:01:13.161Z,23.90
2024-05-09T06:06:18.487Z,23.80
2024-05-09T06:11:23.897Z,23.70
2024-05-09T06:16:31.848Z,23.50
2024-05-09T06:21:37.014Z,23.40
2024-05-09T06:26:44.894Z,23.20
2024-05-09T06:31:52.780Z,23.20
2024-05-09T06:36:58.073Z,23.10
2024-05-09T06:42:03.271Z,23.00
2024-05-09T06:47:11.179Z,23.00
2024-05-09T06:52:16.675Z,23.00
2024-05-09T06:57:22.059Z,22.90
2024-05-09T07:02:30.061Z,22.90
2024-05-09T07:07:35.702Z,23.00
2024-05-09T07:12:40.893Z,23.00
2024-05-09T07:17:49.085Z,23.00
2024-05-09T07:22:55.748Z,23.00
2024-05-09T07:28:00.941Z,23.10
2024-05-09T07:33:09.441Z,23.20
2024-05-09T07:38:14.895Z,23.40
2024-05-09T07:43:20.185Z,23.50
2024-05-09T07:50:00.846Z,23.60
2024-05-09T07:53:56.174Z,23.70
2024-05-09T07:59:04.021Z,23.80
2024-05-09T08:04:12.233Z,24.00
2024-05-09T08:09:21.098Z,24.20
2024-05-09T08:14:27.113Z,24.50
2024-05-09T08:19:37.856Z,24.80
2024-05-09T08:24:43.928Z,25.10
2024-05-09T08:29:49.217Z,25.40
2024-05-09T08:34:57.332Z,25.70
2024-05-09T08:40:03.931Z,25.90
2024-05-09T08:45:10.731Z,26.20
2024-05-09T08:50:29.124Z,26.40
2024-05-09T08:55:43.434Z,26.60
2024-05-09T09:00:50.313Z,26.80
2024-05-09T09:06:03.679Z,26.90
2024-05-09T09:11:09.179Z,27.00
2024-05-09T09:16:14.392Z,27.10
2024-05-09T09:21:22.341Z,27.10
2024-05-09T09:26:27.553Z,27.10
2024-05-09T09:31:33.662Z,27.10
2024-05-09T09:36:43.904Z,27.10
2024-05-09T09:41:51.531Z,27.20
2024-05-09T09:46:58.985Z,27.20
2024-05-09T09:52:08.447Z,27.30
2024-05-09T09:57:16.130Z,27.30
2024-05-09T10:02:21.627Z,27.40
2024-05-09T10:07:30.696Z,27.50
2024-05-09T10:12:36.402Z,27.50
2024-05-09T10:17:52.115Z,27.60
2024-05-09T10:23:00.051Z,27.70
2024-05-09T10:28:05.857Z,27.80
2024-05-09T10:33:14.152Z,27.90
2024-05-09T10:38:22.313Z,28.10
2024-05-09T10:43:28.499Z,28.20
2024-05-09T10:48:34.294Z,28.40
2024-05-09T10:53:49.148Z,28.50
2024-05-09T10:58:55.235Z,28.50
2024-05-09T11:04:01.807Z,28.60
2024-05-09T11:09:09.827Z,28.70
2024-05-09T11:14:15.554Z,28.70
2024-05-09T11:19:20.899Z,28.80
2024-05-09T11:24:29.002Z,28.90
2024-05-09T11:29:41.559Z,29.00
2024-05-09T11:34:46.928Z,29.10
2024-05-09T11:39:55.048Z,29.30
2024-05-09T11:45:00.588Z,29.30
2024-05-09T11:50:07.887Z,29.40
2024-05-09T11:55:18.718Z,29.50
2024-05-09T12:00:33.919Z,29.60
2024-05-09T12:05:42.671Z,29.70
2024-05-09T12:10:50.855Z,29.80
2024-05-09T12:15:57.356Z,29.90
2024-05-09T12:21:02.623Z,30.00
2024-05-09T12:26:11.030Z,30.10
2024-05-09T12:31:16.372Z,30.20
2024-05-09T12:36:21.722Z,30.20
2024-05-09T12:41:29.550Z,30.30
2024-05-09T12:46:34.832Z,30.30
2024-05-09T12:51:40.241Z,30.40
2024-05-09T12:56:48.157Z,30.40
2024-05-09T13:01:53.413Z,30.40
2024-05-09T13:06:58.818Z,30.40
2024-05-09T13:12:07.060Z,30.40
2024-05-09T13:17:12.288Z,30.50
2024-05-09T13:22:17.449Z,30.50
2024-05-09T13:27:25.340Z,30.50
2024-05-09T13:32:30.600Z,30.60
2024-05-09T13:37:36.008Z,30.70
2024-05-09T13:42:45.634Z,30.60
2024-05-09T13:47:52.337Z,30.70
2024-05-09T13:52:57.668Z,30.70
2024-05-09T13:58:05.835Z,30.80
2024-05-09T14:03:11.119Z,30.90
2024-05-09T14:08:18.783Z,31.00
2024-05-09T14:13:26.685Z,31.10
2024-05-09T14:18:32.073Z,31.20
2024-05-09T14:23:37.267Z,31.20
2024-05-09T14:28:45.202Z,31.20
2024-05-09T14:33:50.631Z,31.10
2024-05-09T14:38:55.941Z,31.10
2024-05-09T14:44:03.761Z,31.10
2024-05-09T14:49:12.171Z,31.00
2024-05-09T14:54:17.710Z,30.90
2024-05-09T14:59:25.632Z,30.80
2024-05-09T15:04:31.022Z,30.60
2024-05-09T15:09:38.953Z,30.40
2024-05-09T15:14:46.941Z,30.30
2024-05-09T15:19:52.404Z,30.10
2024-05-09T15:24:57.657Z,29.90
2024-05-09T15:30:08.494Z,29.70
2024-05-09T15:35:15.753Z,29.50
2024-05-09T15:40:30.622Z,29.30
2024-05-09T15:45:45.438Z,29.20
2024-05-09T15:50:50.692Z,29.00
2024-05-09T15:55:55.917Z,28.80
2024-05-09T16:01:03.909Z,28.70
2024-05-09T16:06:09.163Z,28.50
2024-05-09T16:11:16.993Z,28.40
2024-05-09T16:16:25.222Z,28.20
2024-05-09T16:21:30.610Z,28.10
2024-05-09T16:26:35.952Z,28.00
2024-05-09T16:31:43.824Z,27.90
2024-05-09T16:36:51.376Z,27.80
2024-05-09T16:41:56.639Z,27.70
2024-05-09T16:47:06.321Z,27.60
2024-05-09T16:52:11.660Z,27.50
2024-05-09T16:57:17.071Z,27.50
2024-05-09T17:02:25.146Z,27.40
2024-05-09T17:07:30.888Z,27.30
2024-05-09T17:12:36.137Z,27.20
2024-05-09T17:17:44.124Z,27.20
2024-05-09T17:22:49.530Z,27.10
2024-05-09T17:27:54.881Z,27.10
2024-05-09T17:33:02.980Z,27.00
2024-05-09T17:38:09.175Z,26.90
2024-05-09T17:43:14.757Z,26.80
2024-05-09T17:48:22.858Z,26.80
2024-05-09T17:53:28.226Z,26.70
2024-05-09T17:58:33.549Z,26.60
2024-05-09T18:03:43.185Z,26.50
2024-05-09T18:08:48.688Z,26.50
2024-05-09T18:13:54.658Z,26.50
2024-05-09T18:19:02.778Z,26.40
2024-05-09T18:24:10.318Z,26.40
2024-05-09T18:29:17.215Z,26.40
2024-05-09T18:34:26.592Z,26.40
2024-05-09T18:39:32.026Z,26.30
2024-05-09T18:44:38.010Z,26.30
2024-05-09T18:49:46.939Z,26.30
2024-05-09T18:54:52.689Z,26.20
2024-05-09T19:00:00.239Z,26.20
2024-05-09T19:05:09.369Z,26.10
2024-05-09T19:10:22.116Z,26.10
2024-05-09T19:15:31.411Z,26.00
2024-05-09T19:20:40.074Z,26.00
2024-05-09T19:25:46.010Z,25.90
2024-05-09T19:30:54.332Z,25.80
2024-05-09T19:36:03.221Z,25.80
2024-05-09T19:41:09.274Z,25.80
2024-05-09T19:46:16.025Z,25.70
2024-05-09T19:51:24.423Z,25.60
2024-05-09T19:56:30.812Z,25.60
2024-05-09T20:01:37.099Z,25.50
2024-05-09T20:06:46.330Z,25.50
2024-05-09T20:11:52.363Z,25.40
2024-05-09T20:16:58.850Z,25.40
2024-05-09T20:22:10.367Z,25.30
2024-05-09T20:27:18.418Z,25.30
2024-05-09T20:32:25.579Z,25.20
2024-05-09T20:37:34.376Z,25.10
2024-05-09T20:42:40.670Z,25.10
2024-05-09T20:47:46.297Z,25.00
2024-05-09T20:52:54.227Z,25.00
2024-05-09T20:57:59.538Z,25.00
2024-05-09T21:03:04.985Z,24.90
2024-05-09T21:08:13.187Z,24.80
2024-05-09T21:13:18.440Z,24.80
2024-05-09T21:18:23.782Z,24.70
2024-05-09T21:23:31.602Z,24.60
2024-05-09T21:28:36.868Z,24.60
2024-05-09T21:33:42.281Z,24.60
2024-05-09T21:38:50.229Z,24.50
2024-05-09T21:43:55.396Z,24.40
2024-05-09T21:49:00.700Z,24.40
2024-05-09T21:54:08.627Z,24.40
2024-05-09T21:59:14.121Z,24.30
2024-05-09T22:04:19.497Z,24.20
2024-05-09T22:09:27.382Z,24.20
2024-05-09T22:14:33.032Z,24.10
2024-05-09T22:19:38.360Z,24.10
2024-05-09T22:24:46.319Z,24.00
2024-05-09T22:29:51.505Z,24.00
2024-05-09T22:34:56.680Z,23.90
2024-05-09T22:40:06.830Z,23.80
2024-05-09T22:45:13.799Z,23.80
2024-05-09T22:50:26.537Z,23.70
2024-05-09T22:55:38.406Z,23.70
2024-05-09T23:00:43.812Z,23.70
2024-05-09T23:05:50.269Z,23.60
2024-05-09T23:10:58.116Z,23.50
2024-05-09T23:16:03.600Z,23.50
2024-05-09T23:21:09.319Z,23.40
2024-05-09T23:26:17.303Z,23.40
2024-05-09T23:31:23.895Z,23.30
2024-05-09T23:36:30.554Z,23.30
2024-05-09T23:41:38.364Z,23.20
2024-05-09T23:46:43.620Z,23.10
2024-05-09T23:51:48.856Z,23.00
2024-05-09T23:56:56.687Z,22.90
